createdAt,value
2022-10-31T00:01:39.327Z,101367.44
2022-10-31T00:04:07.391Z,101368.38
2022-10-31T00:06:34.909Z,101364.91
2022-10-31T00:09:04.353Z,101350.41
2022-10-31T00:11:32.101Z,101365.53
2022-10-31T00:14:00.329Z,101370.41
2022-10-31T00:16:28.939Z,101362.41
2022-10-31T00:18:58.856Z,101359.72
2022-10-31T00:21:26.821Z,101348.44
2022-10-31T00:23:54.263Z,101361.25
2022-10-31T00:26:22.000Z,101345.91
2022-10-31T00:28:50.122Z,101357.19
2022-10-31T00:31:17.853Z,101350.03
2022-10-31T00:33:45.826Z,101344.66
2022-10-31T00:36:15.398Z,101345.44
2022-10-31T00:38:43.554Z,101349.84
2022-10-31T00:41:12.547Z,101339.50
2022-10-31T00:43:42.314Z,101340.19
2022-10-31T00:46:10.936Z,101336.53
2022-10-31T00:48:38.662Z,101343.53
2022-10-31T00:51:06.355Z,101332.44
2022-10-31T00:53:33.854Z,101346.09
2022-10-31T00:56:02.077Z,101345.06
2022-10-31T00:58:29.556Z,101348.72
2022-10-31T01:00:57.095Z,101341.00
2022-10-31T01:03:30.468Z,101362.53
2022-10-31T01:06:09.144Z,101357.28
2022-10-31T01:08:37.969Z,101364.19
2022-10-31T01:11:17.847Z,101367.69
2022-10-31T01:13:45.965Z,101366.22
2022-10-31T01:16:16.133Z,101353.34
2022-10-31T01:18:43.619Z,101361.03
2022-10-31T01:21:17.329Z,101371.47
2022-10-31T01:23:45.010Z,101361.25
2022-10-31T01:26:16.333Z,101371.50
2022-10-31T01:28:51.605Z,101363.56
2022-10-31T01:31:20.498Z,101365.63
2022-10-31T01:33:48.213Z,101358.69
2022-10-31T01:36:38.967Z,101358.87
2022-10-31T01:39:09.626Z,101352.09
2022-10-31T01:41:41.192Z,101355.41
2022-10-31T01:44:15.041Z,101349.28
2022-10-31T01:46:53.751Z,101354.50
2022-10-31T01:49:26.091Z,101348.41
2022-10-31T01:52:01.977Z,101351.06
2022-10-31T01:54:33.288Z,101347.56
2022-10-31T01:57:01.066Z,101341.56
2022-10-31T01:59:30.516Z,101332.69
2022-10-31T02:01:58.595Z,101336.97
2022-10-31T02:04:28.000Z,101334.34
2022-10-31T02:06:59.480Z,101334.47
2022-10-31T02:09:27.576Z,101329.50
2022-10-31T02:11:57.598Z,101336.41
2022-10-31T02:14:26.971Z,101336.47
2022-10-31T02:16:55.322Z,101312.25
2022-10-31T02:19:41.756Z,101334.34
2022-10-31T02:22:20.958Z,101330.03
2022-10-31T02:24:57.422Z,101328.53
2022-10-31T02:27:46.781Z,101325.88
2022-10-31T02:30:17.509Z,101330.78
2022-10-31T02:33:44.102Z,101324.66
2022-10-31T02:36:35.922Z,101326.38
2022-10-31T02:39:14.609Z,101318.41
2022-10-31T02:42:07.014Z,101310.84
2022-10-31T02:44:50.132Z,101324.78
2022-10-31T02:47:20.204Z,101328.94
2022-10-31T02:49:58.675Z,101317.91
2022-10-31T02:52:28.630Z,101330.09
2022-10-31T02:54:59.904Z,101330.78
2022-10-31T02:57:32.799Z,101322.13
2022-10-31T03:00:06.965Z,101326.47
2022-10-31T03:02:52.887Z,101328.31
2022-10-31T03:05:38.652Z,101333.59
2022-10-31T03:08:11.956Z,101329.97
2022-10-31T03:10:48.090Z,101333.59
2022-10-31T03:13:30.791Z,101335.22
2022-10-31T03:16:09.336Z,101319.19
2022-10-31T03:18:51.804Z,101333.25
2022-10-31T03:21:48.704Z,101338.47
2022-10-31T03:24:17.419Z,101338.47
2022-10-31T03:26:51.087Z,101342.72
2022-10-31T03:29:22.061Z,101347.81
2022-10-31T03:32:18.411Z,101343.41
2022-10-31T03:34:47.295Z,101343.28
2022-10-31T03:37:19.242Z,101327.50
2022-10-31T03:39:47.953Z,101334.59
2022-10-31T03:42:27.120Z,101335.47
2022-10-31T03:44:58.848Z,101340.75
2022-10-31T03:47:28.477Z,101342.53
2022-10-31T03:49:56.541Z,101341.31
2022-10-31T03:52:30.989Z,101323.88
2022-10-31T03:55:07.503Z,101334.87
2022-10-31T03:57:40.585Z,101331.66
2022-10-31T04:00:13.903Z,101311.87
2022-10-31T04:03:00.207Z,101324.81
2022-10-31T04:05:29.020Z,101329.06
2022-10-31T04:08:01.591Z,101333.53
2022-10-31T04:10:32.929Z,101329.88
2022-10-31T04:13:12.833Z,101329.88
2022-10-31T04:15:42.449Z,101334.63
2022-10-31T04:18:10.091Z,101321.66
2022-10-31T04:20:41.019Z,101338.84
2022-10-31T04:23:25.376Z,101335.25
2022-10-31T04:25:53.303Z,101341.75
2022-10-31T04:28:21.236Z,101346.69
2022-10-31T04:30:48.804Z,101350.09
2022-10-31T04:33:16.518Z,101355.25
2022-10-31T04:35:46.033Z,101349.09
2022-10-31T04:38:13.574Z,101355.34
2022-10-31T04:40:41.325Z,101359.59
2022-10-31T04:43:10.178Z,101348.19
2022-10-31T04:45:40.869Z,101351.63
2022-10-31T04:48:09.618Z,101357.88
2022-10-31T04:50:37.469Z,101336.31
2022-10-31T04:53:05.011Z,101358.75
2022-10-31T04:55:32.829Z,101362.25
2022-10-31T04:58:01.986Z,101368.38
2022-10-31T05:00:29.741Z,101356.28
2022-10-31T05:02:58.838Z,101361.22
2022-10-31T05:05:29.827Z,101365.63
2022-10-31T05:07:57.887Z,101362.31
2022-10-31T05:10:28.550Z,101353.06
2022-10-31T05:13:00.768Z,101367.78
2022-10-31T05:15:30.309Z,101366.03
2022-10-31T05:18:03.450Z,101365.09
2022-10-31T05:20:34.367Z,101368.69
2022-10-31T05:23:03.487Z,101369.66
2022-10-31T05:25:31.430Z,101373.19
2022-10-31T05:27:59.726Z,101379.34
2022-10-31T05:30:30.390Z,101376.69
2022-10-31T05:32:59.098Z,101365.44
2022-10-31T05:35:33.238Z,101382.81
2022-10-31T05:38:01.780Z,101379.34
2022-10-31T05:40:29.586Z,101376.63
2022-10-31T05:42:59.728Z,101379.34
2022-10-31T05:45:27.645Z,101375.81
2022-10-31T05:48:01.585Z,101380.22
2022-10-31T05:50:32.533Z,101381.06
2022-10-31T05:53:02.626Z,101376.78
2022-10-31T05:55:30.660Z,101382.47
2022-10-31T05:57:59.254Z,101384.16
2022-10-31T06:00:28.013Z,101384.84
2022-10-31T06:03:01.241Z,101386.47
2022-10-31T06:05:30.122Z,101392.47
2022-10-31T06:07:58.330Z,101396.81
2022-10-31T06:10:26.626Z,101385.63
2022-10-31T06:12:54.647Z,101399.31
2022-10-31T06:15:24.492Z,101399.47
2022-10-31T06:18:05.356Z,101404.62
2022-10-31T06:20:34.884Z,101412.59
2022-10-31T06:23:03.216Z,101406.34
2022-10-31T06:25:31.931Z,101407.97
2022-10-31T06:27:59.581Z,101410.63
2022-10-31T06:30:31.806Z,101412.59
2022-10-31T06:33:06.316Z,101413.53
2022-10-31T06:35:35.214Z,101426.63
2022-10-31T06:38:03.414Z,101424.84
2022-10-31T06:40:31.561Z,101422.31
2022-10-31T06:43:01.596Z,101418.66
2022-10-31T06:45:30.138Z,101426.47
2022-10-31T06:50:54.682Z,101428.16
2022-10-31T06:53:24.642Z,101422.03
2022-10-31T06:55:52.648Z,101421.34
2022-10-31T06:58:20.469Z,101429.00
2022-10-31T07:00:48.749Z,101429.44
2022-10-31T07:03:17.758Z,101429.97
2022-10-31T07:05:45.650Z,101432.66
2022-10-31T07:08:14.662Z,101434.06
2022-10-31T07:10:43.941Z,101416.97
2022-10-31T07:13:15.382Z,101431.41
2022-10-31T07:15:44.868Z,101428.62
2022-10-31T07:18:13.502Z,101430.19
2022-10-31T07:20:41.277Z,101427.56
2022-10-31T07:23:11.172Z,101428.62
2022-10-31T07:25:39.687Z,101436.06
2022-10-31T07:28:07.842Z,101436.06
2022-10-31T07:30:35.625Z,101432.94
2022-10-31T07:33:03.217Z,101434.84
2022-10-31T07:35:33.433Z,101430.03
2022-10-31T07:38:09.630Z,101440.78
2022-10-31T07:40:37.213Z,101438.09
2022-10-31T07:43:07.557Z,101435.78
2022-10-31T07:45:40.646Z,101435.47
2022-10-31T07:48:10.756Z,101435.22
2022-10-31T07:50:45.662Z,101437.78
2022-10-31T07:53:17.870Z,101438.59
2022-10-31T07:55:45.858Z,101444.53
2022-10-31T07:58:16.060Z,101426.50
2022-10-31T08:00:45.733Z,101444.47
2022-10-31T08:03:16.757Z,101447.88
2022-10-31T08:05:48.218Z,101448.75
2022-10-31T08:08:17.715Z,101451.63
2022-10-31T08:10:45.428Z,101452.91
2022-10-31T08:13:14.558Z,101456.00
2022-10-31T08:15:43.170Z,101441.69
2022-10-31T08:18:14.057Z,101453.03
2022-10-31T08:20:45.453Z,101458.22
2022-10-31T08:23:14.471Z,101449.31
2022-10-31T08:25:43.318Z,101447.19
2022-10-31T08:28:12.672Z,101455.03
2022-10-31T08:30:42.253Z,101450.84
2022-10-31T08:33:17.995Z,101449.06
2022-10-31T08:35:52.765Z,101444.94
2022-10-31T08:38:23.034Z,101443.06
2022-10-31T08:40:50.975Z,101440.25
2022-10-31T08:43:19.459Z,101438.81
2022-10-31T08:45:50.171Z,101441.38
2022-10-31T08:48:19.328Z,101444.53
2022-10-31T08:50:47.839Z,101442.91
2022-10-31T08:53:20.170Z,101443.59
2022-10-31T08:55:49.312Z,101438.41
2022-10-31T08:58:20.110Z,101434.19
2022-10-31T09:00:50.594Z,101428.06
2022-10-31T09:03:23.784Z,101425.06
2022-10-31T09:05:55.267Z,101442.69
2022-10-31T09:08:23.159Z,101430.44
2022-10-31T09:10:51.832Z,101437.91
2022-10-31T09:13:21.452Z,101437.28
2022-10-31T09:15:50.548Z,101434.41
2022-10-31T09:18:22.425Z,101435.84
2022-10-31T09:20:50.927Z,101432.34
2022-10-31T09:23:21.553Z,101438.78
2022-10-31T09:25:51.161Z,101429.72
2022-10-31T09:28:25.273Z,101440.59
2022-10-31T09:30:54.197Z,101439.44
2022-10-31T09:33:22.621Z,101433.37
2022-10-31T09:35:52.274Z,101435.84
2022-10-31T09:38:21.893Z,101420.03
2022-10-31T09:41:16.211Z,101439.44
2022-10-31T09:43:59.666Z,101442.12
2022-10-31T09:46:36.437Z,101434.72
2022-10-31T09:49:25.894Z,101432.38
2022-10-31T09:52:04.910Z,101449.53
2022-10-31T09:54:45.113Z,101450.91
2022-10-31T09:57:16.057Z,101446.38
2022-10-31T09:59:45.652Z,101447.25
2022-10-31T10:02:22.897Z,101442.34
2022-10-31T10:05:02.219Z,101433.47
2022-10-31T10:07:33.373Z,101448.97
2022-10-31T10:10:18.402Z,101449.50
2022-10-31T10:13:10.967Z,101445.62
2022-10-31T10:16:20.402Z,101449.97
2022-10-31T10:19:02.885Z,101451.66
2022-10-31T10:21:51.865Z,101453.00
2022-10-31T10:24:34.943Z,101445.06
2022-10-31T10:27:27.543Z,101445.09
2022-10-31T10:30:07.422Z,101445.47
2022-10-31T10:32:52.182Z,101449.94
2022-10-31T10:35:35.885Z,101434.34
2022-10-31T10:38:10.694Z,101441.38
2022-10-31T10:40:38.336Z,101434.22
2022-10-31T10:43:24.150Z,101430.94
2022-10-31T10:46:16.200Z,101429.53
2022-10-31T10:49:05.821Z,101425.22
2022-10-31T10:52:12.804Z,101440.81
2022-10-31T10:54:55.580Z,101428.34
2022-10-31T10:57:30.074Z,101419.72
2022-10-31T10:59:59.036Z,101429.91
2022-10-31T11:02:27.809Z,101434.22
2022-10-31T11:04:57.920Z,101432.47
2022-10-31T11:07:25.651Z,101415.03
2022-10-31T11:10:04.449Z,101425.03
2022-10-31T11:12:34.467Z,101418.78
2022-10-31T11:15:08.588Z,101423.50
2022-10-31T11:17:40.793Z,101419.38
2022-10-31T11:20:17.882Z,101422.81
2022-10-31T11:22:48.635Z,101421.94
2022-10-31T11:25:26.911Z,101426.97
2022-10-31T11:28:01.862Z,101418.88
2022-10-31T11:30:30.101Z,101421.16
2022-10-31T11:32:58.268Z,101400.84
2022-10-31T11:35:26.719Z,101399.00
2022-10-31T11:37:56.155Z,101412.78
2022-10-31T11:40:27.828Z,101400.59
2022-10-31T11:42:58.303Z,101409.34
2022-10-31T11:45:34.887Z,101406.09
2022-10-31T11:48:17.348Z,101395.00
2022-10-31T11:50:50.958Z,101411.03
2022-10-31T11:53:20.626Z,101400.44
2022-10-31T11:55:48.855Z,101408.62
2022-10-31T11:58:25.053Z,101393.06
2022-10-31T12:00:55.075Z,101403.66
2022-10-31T12:03:41.614Z,101399.75
2022-10-31T12:06:22.209Z,101395.94
2022-10-31T12:08:50.279Z,101398.16
2022-10-31T12:11:31.102Z,101382.84
2022-10-31T12:14:18.910Z,101395.09
2022-10-31T12:16:57.607Z,101392.97
2022-10-31T12:19:37.606Z,101391.50
2022-10-31T12:22:15.338Z,101397.97
2022-10-31T12:25:00.410Z,101386.97
2022-10-31T12:27:37.314Z,101379.28
2022-10-31T12:30:21.559Z,101379.75
2022-10-31T12:33:20.040Z,101373.31
2022-10-31T12:36:21.618Z,101377.53
2022-10-31T12:39:03.071Z,101372.41
2022-10-31T12:41:52.678Z,101368.53
2022-10-31T12:44:38.816Z,101363.53
2022-10-31T12:47:21.519Z,101378.91
2022-10-31T12:49:57.953Z,101373.09
2022-10-31T12:52:37.614Z,101377.97
2022-10-31T12:55:26.119Z,101373.84
2022-10-31T12:57:58.387Z,101371.44
2022-10-31T13:00:30.387Z,101358.75
2022-10-31T13:03:05.028Z,101371.56
2022-10-31T13:05:42.172Z,101370.59
2022-10-31T13:08:20.917Z,101372.69
2022-10-31T13:11:06.429Z,101354.66
2022-10-31T13:13:39.125Z,101375.87
2022-10-31T13:16:22.016Z,101361.09
2022-10-31T13:18:55.687Z,101372.09
2022-10-31T13:21:38.787Z,101358.34
2022-10-31T13:24:17.262Z,101364.25
2022-10-31T13:26:55.808Z,101372.91
2022-10-31T13:29:44.342Z,101376.31
2022-10-31T13:32:11.908Z,101375.34
2022-10-31T13:34:56.153Z,101372.72
2022-10-31T13:37:35.812Z,101379.13
2022-10-31T13:40:03.756Z,101372.09
2022-10-31T13:42:41.793Z,101373.91
2022-10-31T13:45:18.721Z,101376.63
2022-10-31T13:48:01.214Z,101377.91
2022-10-31T13:50:32.534Z,101373.97
2022-10-31T13:53:18.351Z,101378.31
2022-10-31T13:55:49.249Z,101385.47
2022-10-31T13:58:30.839Z,101374.47
2022-10-31T14:01:16.112Z,101375.38
2022-10-31T14:04:06.080Z,101384.00
2022-10-31T14:06:43.973Z,101371.63
2022-10-31T14:09:24.736Z,101366.78
2022-10-31T14:11:53.106Z,101370.06
2022-10-31T14:14:22.208Z,101365.63
2022-10-31T14:16:56.985Z,101371.34
2022-10-31T14:19:25.751Z,101358.44
2022-10-31T14:21:53.298Z,101372.81
2022-10-31T14:24:23.714Z,101371.97
2022-10-31T14:27:03.468Z,101376.19
2022-10-31T14:29:32.840Z,101366.56
2022-10-31T14:32:13.766Z,101360.75
2022-10-31T14:34:43.537Z,101359.91
2022-10-31T14:37:40.787Z,101374.47
2022-10-31T14:41:02.717Z,101361.63
2022-10-31T14:44:06.289Z,101373.56
2022-10-31T14:46:58.081Z,101378.84
2022-10-31T14:49:44.245Z,101381.66
2022-10-31T14:52:14.213Z,101375.66
2022-10-31T14:54:46.520Z,101368.06
2022-10-31T14:57:18.088Z,101377.13
2022-10-31T14:59:50.375Z,101377.28
2022-10-31T15:02:24.246Z,101373.50
2022-10-31T15:04:53.979Z,101374.50
2022-10-31T15:07:25.100Z,101374.75
2022-10-31T15:10:01.516Z,101361.25
2022-10-31T15:12:31.610Z,101361.06
2022-10-31T15:15:12.427Z,101352.41
2022-10-31T15:17:45.186Z,101355.50
2022-10-31T15:20:13.601Z,101353.81
2022-10-31T15:22:41.160Z,101356.72
2022-10-31T15:25:18.487Z,101359.16
2022-10-31T15:27:47.617Z,101342.84
2022-10-31T15:30:24.909Z,101354.12
2022-10-31T15:33:01.117Z,101356.63
2022-10-31T15:35:31.885Z,101354.00
2022-10-31T15:38:01.764Z,101354.06
2022-10-31T15:40:29.674Z,101358.53
2022-10-31T15:43:03.321Z,101364.78
2022-10-31T15:45:31.603Z,101366.00
2022-10-31T15:48:02.536Z,101367.22
2022-10-31T15:50:38.507Z,101370.72
2022-10-31T15:53:07.781Z,101364.59
2022-10-31T15:55:39.416Z,101373.09
2022-10-31T15:58:14.766Z,101349.38
2022-10-31T16:00:42.642Z,101373.66
2022-10-31T16:03:13.316Z,101360.47
2022-10-31T16:05:45.448Z,101368.50
2022-10-31T16:08:31.536Z,101360.59
2022-10-31T16:11:08.446Z,101353.78
2022-10-31T16:13:39.419Z,101372.72
2022-10-31T16:16:34.079Z,101370.22
2022-10-31T16:19:04.916Z,101372.91
2022-10-31T16:21:35.214Z,101366.97
2022-10-31T16:24:16.606Z,101380.00
2022-10-31T16:26:52.591Z,101379.97
2022-10-31T16:29:49.694Z,101382.72
2022-10-31T16:32:31.582Z,101386.22
2022-10-31T16:35:29.667Z,101388.00
2022-10-31T16:37:57.113Z,101386.22
2022-10-31T16:40:25.277Z,101396.88
2022-10-31T16:42:53.003Z,101391.75
2022-10-31T16:45:28.100Z,101393.50
2022-10-31T16:48:03.776Z,101393.50
2022-10-31T16:50:31.578Z,101397.06
2022-10-31T16:53:15.171Z,101397.31
2022-10-31T16:55:45.887Z,101399.78
2022-10-31T16:58:20.232Z,101393.97
2022-10-31T17:00:47.815Z,101403.37
2022-10-31T17:03:15.661Z,101387.09
2022-10-31T17:05:51.393Z,101402.59
2022-10-31T17:08:19.125Z,101386.31
2022-10-31T17:10:48.455Z,101392.38
2022-10-31T17:13:21.786Z,101408.34
2022-10-31T17:15:52.373Z,101417.94
2022-10-31T17:18:24.442Z,101417.28
2022-10-31T17:21:00.038Z,101417.28
2022-10-31T17:23:28.678Z,101417.28
2022-10-31T17:25:57.153Z,101413.72
2022-10-31T17:28:26.637Z,101416.34
2022-10-31T17:30:55.656Z,101414.69
2022-10-31T17:33:23.411Z,101413.78
2022-10-31T17:35:51.755Z,101414.69
2022-10-31T17:38:19.232Z,101426.16
2022-10-31T17:43:15.473Z,101410.44
2022-10-31T17:45:43.131Z,101411.28
2022-10-31T17:48:13.908Z,101429.59
2022-10-31T17:50:41.394Z,101420.13
2022-10-31T17:53:09.065Z,101422.72
2022-10-31T17:55:37.730Z,101424.59
2022-10-31T17:58:05.704Z,101426.37
2022-10-31T18:00:33.671Z,101423.63
2022-10-31T18:03:03.897Z,101407.22
2022-10-31T18:05:32.058Z,101425.47
2022-10-31T18:08:03.814Z,101410.00
2022-10-31T18:10:32.178Z,101427.25
2022-10-31T18:13:00.325Z,101422.84
2022-10-31T18:15:28.378Z,101422.75
2022-10-31T18:17:56.531Z,101405.66
2022-10-31T18:20:24.296Z,101415.03
2022-10-31T18:22:51.979Z,101408.97
2022-10-31T18:25:19.683Z,101402.09
2022-10-31T18:27:47.338Z,101420.37
2022-10-31T18:30:15.044Z,101420.31
2022-10-31T18:32:42.985Z,101411.88
2022-10-31T18:35:10.791Z,101418.78
2022-10-31T18:37:38.287Z,101421.41
2022-10-31T18:40:06.803Z,101424.91
2022-10-31T18:42:35.602Z,101422.25
2022-10-31T18:45:17.099Z,101420.56
2022-10-31T18:47:51.860Z,101425.94
2022-10-31T18:50:19.892Z,101421.59
2022-10-31T18:52:47.406Z,101427.13
2022-10-31T18:55:15.186Z,101406.50
2022-10-31T18:57:42.810Z,101423.91
2022-10-31T19:00:10.960Z,101422.28
2022-10-31T19:02:39.006Z,101419.84
2022-10-31T19:05:06.746Z,101420.69
2022-10-31T19:07:34.325Z,101425.16
2022-10-31T19:10:02.273Z,101424.31
2022-10-31T19:12:32.257Z,101420.59
2022-10-31T19:14:59.748Z,101417.13
2022-10-31T19:17:27.616Z,101415.44
2022-10-31T19:19:55.359Z,101400.72
2022-10-31T19:22:23.052Z,101421.38
2022-10-31T19:24:51.003Z,101420.59
2022-10-31T19:27:18.887Z,101413.44
2022-10-31T19:29:46.385Z,101410.84
2022-10-31T19:32:14.431Z,101394.78
2022-10-31T19:34:41.927Z,101388.63
2022-10-31T19:37:09.424Z,101410.31
2022-10-31T19:39:42.759Z,101391.41
2022-10-31T19:42:12.178Z,101401.06
2022-10-31T19:44:40.178Z,101414.75
2022-10-31T19:47:07.878Z,101405.12
2022-10-31T19:49:36.108Z,101412.00
2022-10-31T19:52:04.187Z,101404.22
2022-10-31T19:54:32.217Z,101402.69
2022-10-31T19:56:59.947Z,101417.28
2022-10-31T19:59:28.102Z,101426.06
2022-10-31T20:01:55.608Z,101427.75
2022-10-31T20:04:23.683Z,101425.16
2022-10-31T20:06:51.246Z,101436.56
2022-10-31T20:09:19.146Z,101431.28
2022-10-31T20:11:47.215Z,101423.41
2022-10-31T20:14:17.068Z,101410.56
2022-10-31T20:16:45.197Z,101421.81
2022-10-31T20:19:13.088Z,101427.25
2022-10-31T20:21:41.116Z,101422.06
2022-10-31T20:24:09.849Z,101426.63
2022-10-31T20:26:39.641Z,101424.03
2022-10-31T20:29:07.335Z,101428.44
2022-10-31T20:31:36.496Z,101433.94
2022-10-31T20:34:04.625Z,101431.50
2022-10-31T20:36:32.395Z,101412.53
2022-10-31T20:39:00.412Z,101428.06
2022-10-31T20:41:28.550Z,101413.50
2022-10-31T20:43:56.156Z,101426.66
2022-10-31T20:46:26.253Z,101425.91
2022-10-31T20:48:54.427Z,101425.03
2022-10-31T20:51:25.137Z,101431.13
2022-10-31T20:53:54.230Z,101412.44
2022-10-31T20:56:26.052Z,101432.41
2022-10-31T20:58:57.180Z,101433.19
2022-10-31T21:01:30.311Z,101431.31
2022-10-31T21:03:59.357Z,101430.63
2022-10-31T21:06:28.446Z,101431.25
2022-10-31T21:08:56.604Z,101427.00
2022-10-31T21:11:26.181Z,101426.75
2022-10-31T21:13:54.336Z,101425.88
2022-10-31T21:16:31.100Z,101427.59
2022-10-31T21:19:00.172Z,101431.22
2022-10-31T21:21:32.609Z,101422.34
2022-10-31T21:24:03.916Z,101421.62
2022-10-31T21:26:34.734Z,101419.78
2022-10-31T21:29:04.058Z,101416.22
2022-10-31T21:31:31.939Z,101418.97
2022-10-31T21:33:59.411Z,101419.00
2022-10-31T21:36:27.294Z,101424.28
2022-10-31T21:38:55.442Z,101418.09
2022-10-31T21:41:23.975Z,101413.84
2022-10-31T21:43:54.322Z,101409.47
2022-10-31T21:46:30.223Z,101411.97
2022-10-31T21:48:59.730Z,101408.41
2022-10-31T21:51:29.317Z,101406.63
2022-10-31T21:54:15.733Z,101401.34
2022-10-31T21:56:43.692Z,101403.03
2022-10-31T21:59:11.616Z,101404.91
2022-10-31T22:01:39.547Z,101405.91
2022-10-31T22:04:07.405Z,101399.13
2022-10-31T22:06:35.584Z,101405.25
2022-10-31T22:09:05.005Z,101409.66
2022-10-31T22:11:32.965Z,101408.97
2022-10-31T22:14:01.014Z,101407.28
2022-10-31T22:16:29.701Z,101408.25
2022-10-31T22:19:00.078Z,101407.50
2022-10-31T22:21:28.636Z,101410.16
2022-10-31T22:24:01.808Z,101409.31
2022-10-31T22:26:32.880Z,101394.69
2022-10-31T22:29:02.657Z,101404.09
2022-10-31T22:31:31.433Z,101402.41
2022-10-31T22:33:59.929Z,101404.97
2022-10-31T22:36:29.434Z,101404.09
2022-10-31T22:38:57.946Z,101407.59
2022-10-31T22:41:28.778Z,101404.00
2022-10-31T22:43:56.874Z,101403.00
2022-10-31T22:46:26.650Z,101395.97
2022-10-31T22:48:56.727Z,101404.72
2022-10-31T22:51:26.617Z,101400.50
2022-10-31T22:53:57.780Z,101403.88
2022-10-31T22:56:27.725Z,101402.19
2022-10-31T22:58:55.650Z,101396.97
2022-10-31T23:01:26.095Z,101380.94
2022-10-31T23:03:53.876Z,101391.06
2022-10-31T23:06:24.163Z,101399.94
2022-10-31T23:08:52.784Z,101387.72
2022-10-31T23:11:24.346Z,101392.91
2022-10-31T23:14:10.604Z,101390.28
2022-10-31T23:16:41.094Z,101392.97
2022-10-31T23:19:10.265Z,101394.09
2022-10-31T23:21:59.429Z,101393.13
2022-10-31T23:24:44.275Z,101396.81
2022-10-31T23:27:23.155Z,101380.16
2022-10-31T23:29:52.693Z,101385.94
2022-10-31T23:32:30.764Z,101381.47
2022-10-31T23:35:00.555Z,101380.59
2022-10-31T23:37:30.346Z,101376.19
2022-10-31T23:40:16.685Z,101372.69
2022-10-31T23:42:45.231Z,101375.19
2022-10-31T23:45:12.922Z,101370.78
2022-10-31T23:47:43.298Z,101358.63
2022-10-31T23:50:11.407Z,101344.88
2022-10-31T23:52:39.131Z,101342.72
2022-10-31T23:55:07.129Z,101363.34
2022-10-31T23:57:34.587Z,101347.97
